Flight Track Log - Related Links

Times and Time Zones

All times are in EDT time to prevent confusion due to time zone crossing. See the N214GF flight status page for this flight to view local times or setup timezone preferences in your user account.

Time Position Orientation Groundspeed Altitude Reporting Facility
EDT Latitude Longitude Course Direction KTS MPH feet Rate Location/Type
Sun 06:24:59 PM 42.8975 -85.5781 260° West 135 155 2,700  Level Chicago Center
Sun 06:26:01 PM 42.8908 -85.6294 260° West 135 155 3,400 726 Climbing Chicago Center
Sun 06:27:03 PM 42.8844 -85.6808 260° West 136 157 4,200 774 Climbing Chicago Center
Sun 06:28:05 PM 42.8783 -85.7286 260° West 134 154 5,000 823 Climbing Chicago Center
Sun 06:29:00 PM 42.8297 -85.8791 260° West  Level FlightAware Approximate
Sun 06:29:07 PM 42.8717 -85.7858 261° West 131 151 5,900  Level Chicago Center
Sun 06:30:00 PM 42.8222 -85.9392 260° West  Level FlightAware Approximate
Sun 06:30:10 PM 42.8664 -85.8342 262° West 130 150 6,600  Level Chicago Center
Sun 06:31:12 PM 42.8606 -85.8839 261° West 130 150 7,300 629 Climbing Chicago Center
Sun 06:32:14 PM 42.8550 -85.9350 262° West 131 151 7,900 581 Climbing Chicago Center
Sun 06:33:16 PM 42.8486 -85.9864 260° West 134 154 8,500 645 Climbing Chicago Center
Sun 06:35:20 PM 42.8358 -86.0906 261° West 137 158 9,900 706 Climbing Chicago Center
Sun 06:36:23 PM 42.8292 -86.1511 261° West 136 157 10,700 672 Climbing Chicago Center
Sun 06:37:25 PM 42.8222 -86.2036 260° West 136 157 11,300 449 Climbing Chicago Center
Sun 06:39:30 PM 42.8086 -86.3142 261° West 145 167 12,100 258 Climbing Chicago Center
Sun 06:40:31 PM 42.8011 -86.3775 261° West 163 188 12,100  Level Chicago Center
Sun 06:42:36 PM 42.7836 -86.5214 260° West 174 200 12,100  Level Chicago Center
Sun 06:43:38 PM 42.7744 -86.5875 259° West 176 203 12,100  Level Chicago Center
Sun 06:44:40 PM 42.7661 -86.6525 260° West 175 201 12,100  Level Chicago Center
Sun 06:46:45 PM 42.7500 -86.7839 260° West 175 201 12,100  Level Chicago Center
Sun 06:47:47 PM 42.7403 -86.8628 261° West 176 203 12,100  Level Chicago Center
Sun 06:48:49 PM 42.7314 -86.9281 260° West 176 203 12,100  Level Chicago Center
Sun 06:49:51 PM 42.7222 -86.9939 259° West 177 204 12,100  Level Chicago Center
Sun 06:51:28 PM 42.7167 -87.1000 266° West 176 203 12,100  Level KMKE
Sun 06:52:28 PM 42.7000 -87.1667 251° West 174 200 12,100 -67 Level KMKE
Sun 06:52:58 PM 42.6969 -87.1889 259° West 175 201 12,000  Descending Chicago Center
Sun 06:55:23 PM 42.6833 -87.3500 263° West 173 199 12,100  Climbing KMKE
Sun 06:56:04 PM 42.6883 -87.3936 279° West 173 199 12,000 -348 Descending Chicago Center
Sun 06:57:58 PM 42.6833 -87.5333 267° West 189 217 11,200 -480 Descending Chicago TRACON
Sun 06:58:59 PM 42.6833 -87.6000 270° West 199 229 10,600 -667 Descending Chicago TRACON
Sun 07:00:13 PM 42.6233 -87.6322 202° Southwest 201 231 9,700 -794 Descending Chicago Center
Sun 07:01:15 PM 42.5886 -87.6894 231° Southwest 202 232 8,800 -726 Descending Chicago Center
Sun 07:02:17 PM 42.5569 -87.7458 233° Southwest 193 222 8,200 -581 Descending Chicago Center
Sun 07:03:19 PM 42.5286 -87.7919 230° Southwest 187 215 7,600 -677 Descending Chicago Center
Sun 07:04:21 PM 42.4878 -87.8547 229° Southwest 185 213 6,800 -750 Descending Chicago Center
Sun 07:05:59 PM 42.4333 -87.9333 227° Southwest 182 209 5,600 -732 Descending Chicago TRACON
Sun 07:07:05 PM 42.3833 -87.9833 216° Southwest 178 205 4,800 -737 Descending Chicago TRACON
Sun 07:07:53 PM 42.3500 -88.0000 200° South 178 205 4,200 -706 Descending Chicago TRACON
Sun 07:08:30 PM 42.3231 -87.9983 177° South 175 201 3,800 -727 Descending Chicago Center
Sun 07:09:32 PM 42.2781 -87.9922 174° South 168 193 3,000 -677 Descending Chicago Center
Sun 07:10:34 PM 42.2344 -87.9669 157° South 160 184 2,400 -387 Descending Chicago Center
Sun 07:11:36 PM 42.2039 -87.9500 158° South 140 161 2,200 -408 Descending Chicago Center
Sun 07:14:00 PM 42.1333 -87.9167 161° South 99 114 1,000 -500 Descending Chicago TRACON

Login

Don't have an account? Register now (free) for customized features, flight alerts, and more!